Maumelle, Arkansas
Current Conditions -  °F | °C
As of 2:53 PM on Wednesday 26 Nov 2014 (Local Time) from KLIT Reporting Station
Scattered Clouds Scattered Clouds  
Wind Chill: 58°   Ceiling: Unl
Heat Index: 58°   Visibility: 10mi
Dew Point: 28°   Wind: 10mph
Humidity: 32%   Direction: 310°NW
Pressure: 30.06"   Gusts: 20mph
Location:  34.86°N, 92.4°W
Report Text: KLIT 262053Z 31009G17KT 10SM FEW045 SCT250 14/M02 A3006 RMK AO2 PK WND 28026/1957 SLP181 T01441022 53018
Loading
Personal Weather Stations






























Interactive Weather Map New forecast layout! Learn more

10-Day Weather Forecast

Advertisements
Track Severe Weather on mobile